createdAt,value
2022-10-08T00:00:57.000Z,281.49
2022-10-08T00:02:24.000Z,281.48
2022-10-08T00:04:30.000Z,281.48
2022-10-08T00:07:21.000Z,281.45
2022-10-08T00:08:48.000Z,281.43
2022-10-08T00:10:54.000Z,281.4
2022-10-08T00:12:20.000Z,281.37
2022-10-08T00:14:26.000Z,281.35
2022-10-08T00:15:53.000Z,281.32
2022-10-08T00:17:59.000Z,281.3
2022-10-08T00:19:26.000Z,281.28
2022-10-08T00:21:32.000Z,281.25
2022-10-08T00:22:58.000Z,281.22
2022-10-08T00:25:04.000Z,281.19
2022-10-08T00:26:31.000Z,281.16
2022-10-08T00:28:37.000Z,281.15
2022-10-08T00:30:03.000Z,281.16
2022-10-08T00:32:10.000Z,281.16
2022-10-08T00:33:36.000Z,281.15
2022-10-08T00:35:42.000Z,281.16
2022-10-08T00:37:09.000Z,281.16
2022-10-08T00:39:15.000Z,281.16
2022-10-08T00:40:41.000Z,281.16
2022-10-08T00:42:47.000Z,281.18
2022-10-08T00:45:39.000Z,281.16
2022-10-08T00:47:06.000Z,281.15
2022-10-08T00:49:12.000Z,281.15
2022-10-08T00:50:39.000Z,281.15
2022-10-08T00:52:45.000Z,281.15
2022-10-08T00:54:12.000Z,281.15
2022-10-08T00:56:18.000Z,281.16
2022-10-08T00:57:44.000Z,281.16
2022-10-08T00:59:50.000Z,281.16
2022-10-08T01:01:17.000Z,281.16
2022-10-08T01:03:23.000Z,281.15
2022-10-08T01:04:50.000Z,281.15
2022-10-08T01:06:56.000Z,281.14
2022-10-08T01:08:22.000Z,281.12
2022-10-08T01:10:28.000Z,281.12
2022-10-08T01:11:55.000Z,281.11
2022-10-08T01:14:01.000Z,281.11
2022-10-08T01:15:28.000Z,281.12
2022-10-08T01:17:34.000Z,281.12
2022-10-08T01:19:00.000Z,281.12
2022-10-08T01:21:06.000Z,281.12
2022-10-08T01:23:58.000Z,281.08
2022-10-08T01:25:24.000Z,281.08
2022-10-08T01:27:30.000Z,281.07
2022-10-08T01:28:57.000Z,281.04
2022-10-08T01:31:03.000Z,281.04
2022-10-08T01:32:29.000Z,281.01
2022-10-08T01:34:35.000Z,281
2022-10-08T01:36:02.000Z,280.98
2022-10-08T01:38:08.000Z,280.96
2022-10-08T01:39:34.000Z,280.96
2022-10-08T01:41:40.000Z,280.94
2022-10-08T01:43:07.000Z,280.94
2022-10-08T01:45:13.000Z,280.93
2022-10-08T01:46:39.000Z,280.93
2022-10-08T01:48:46.000Z,280.93
2022-10-08T01:50:12.000Z,280.94
2022-10-08T01:52:18.000Z,280.96
2022-10-08T01:53:45.000Z,280.96
2022-10-08T01:55:51.000Z,280.98
2022-10-08T01:57:17.000Z,281
2022-10-08T01:59:23.000Z,281.01
2022-10-08T02:02:15.000Z,281.04
2022-10-08T02:03:42.000Z,281.07
2022-10-08T02:05:48.000Z,281.07
2022-10-08T02:07:14.000Z,281.08
2022-10-08T02:09:20.000Z,281.14
2022-10-08T02:10:47.000Z,281.14
2022-10-08T02:12:53.000Z,281.14
2022-10-08T02:14:19.000Z,281.16
2022-10-08T02:16:25.000Z,281.19
2022-10-08T02:17:52.000Z,281.21
2022-10-08T02:19:58.000Z,281.23
2022-10-08T02:21:24.000Z,281.23
2022-10-08T02:23:31.000Z,281.23
2022-10-08T02:24:57.000Z,281.23
2022-10-08T02:27:03.000Z,281.25
2022-10-08T02:28:30.000Z,281.28
2022-10-08T02:30:36.000Z,281.29
2022-10-08T02:32:03.000Z,281.29
2022-10-08T02:34:09.000Z,281.3
2022-10-08T02:35:35.000Z,281.3
2022-10-08T02:37:41.000Z,281.32
2022-10-08T02:40:32.000Z,281.3
2022-10-08T02:41:59.000Z,281.29
2022-10-08T02:44:05.000Z,281.28
2022-10-08T02:45:32.000Z,281.26
2022-10-08T02:47:38.000Z,281.25
2022-10-08T02:49:04.000Z,281.25
2022-10-08T02:51:10.000Z,281.23
2022-10-08T02:52:37.000Z,281.22
2022-10-08T02:54:43.000Z,281.21
2022-10-08T02:56:09.000Z,281.18
2022-10-08T02:58:15.000Z,281.15
2022-10-08T02:59:42.000Z,281.14
2022-10-08T03:01:48.000Z,281.12
2022-10-08T03:03:15.000Z,281.1
2022-10-08T03:05:21.000Z,281.08
2022-10-08T03:06:47.000Z,281.07
2022-10-08T03:08:54.000Z,281.03
2022-10-08T03:10:20.000Z,281.03
2022-10-08T03:12:26.000Z,280.98
2022-10-08T03:13:53.000Z,280.96
2022-10-08T03:15:59.000Z,280.94
2022-10-08T03:18:50.000Z,280.9
2022-10-08T03:20:16.000Z,280.86
2022-10-08T03:22:22.000Z,280.84
2022-10-08T03:23:49.000Z,280.83
2022-10-08T03:25:55.000Z,280.8
2022-10-08T03:27:22.000Z,280.78
2022-10-08T03:29:28.000Z,280.75
2022-10-08T03:30:54.000Z,280.72
2022-10-08T03:33:00.000Z,280.69
2022-10-08T03:34:27.000Z,280.68
2022-10-08T03:36:33.000Z,280.68
2022-10-08T03:37:59.000Z,280.68
2022-10-08T03:40:05.000Z,280.66
2022-10-08T03:41:32.000Z,280.65
2022-10-08T03:43:38.000Z,280.62
2022-10-08T03:45:05.000Z,280.59
2022-10-08T03:47:11.000Z,280.56
2022-10-08T03:48:37.000Z,280.54
2022-10-08T03:50:43.000Z,280.53
2022-10-08T03:52:10.000Z,280.49
2022-10-08T03:54:16.000Z,280.47
2022-10-08T03:57:08.000Z,280.43
2022-10-08T03:58:34.000Z,280.35
2022-10-08T04:00:40.000Z,280.34
2022-10-08T04:02:07.000Z,280.3
2022-10-08T04:04:13.000Z,280.27
2022-10-08T04:05:39.000Z,280.23
2022-10-08T04:07:46.000Z,280.18
2022-10-08T04:09:12.000Z,280.16
2022-10-08T04:11:18.000Z,280.14
2022-10-08T04:12:45.000Z,280.1
2022-10-08T04:14:51.000Z,280.07
2022-10-08T04:16:18.000Z,280.07
2022-10-08T04:18:24.000Z,280.05
2022-10-08T04:19:51.000Z,280.03
2022-10-08T04:21:57.000Z,280.02
2022-10-08T04:23:24.000Z,279.99
2022-10-08T04:25:30.000Z,279.98
2022-10-08T04:26:56.000Z,279.95
2022-10-08T04:29:02.000Z,279.92
2022-10-08T04:30:29.000Z,279.89
2022-10-08T04:32:35.000Z,279.86
2022-10-08T04:35:26.000Z,279.85
2022-10-08T04:36:53.000Z,279.84
2022-10-08T04:38:59.000Z,279.82
2022-10-08T04:40:25.000Z,279.81
2022-10-08T04:42:31.000Z,279.8
2022-10-08T04:43:58.000Z,279.77
2022-10-08T04:46:04.000Z,279.8
2022-10-08T04:47:31.000Z,279.77
2022-10-08T04:49:37.000Z,279.76
2022-10-08T04:51:03.000Z,279.73
2022-10-08T04:53:16.000Z,279.7
2022-10-08T04:54:42.000Z,279.69
2022-10-08T04:56:48.000Z,279.67
2022-10-08T04:58:15.000Z,279.63
2022-10-08T05:00:21.000Z,279.6
2022-10-08T05:01:47.000Z,279.58
2022-10-08T05:03:53.000Z,279.54
2022-10-08T05:05:20.000Z,279.51
2022-10-08T05:07:26.000Z,279.48
2022-10-08T05:08:53.000Z,279.44
2022-10-08T05:10:59.000Z,279.4
2022-10-08T05:13:50.000Z,279.37
2022-10-08T05:15:16.000Z,279.34
2022-10-08T05:17:22.000Z,279.33
2022-10-08T05:18:49.000Z,279.31
2022-10-08T05:20:55.000Z,279.3
2022-10-08T05:22:22.000Z,279.33
2022-10-08T05:24:28.000Z,279.33
2022-10-08T05:25:54.000Z,279.31
2022-10-08T05:28:00.000Z,279.31
2022-10-08T05:29:27.000Z,279.33
2022-10-08T05:31:33.000Z,279.33
2022-10-08T05:33:00.000Z,279.33
2022-10-08T05:35:06.000Z,279.34
2022-10-08T05:36:32.000Z,279.33
2022-10-08T05:38:38.000Z,279.34
2022-10-08T05:40:05.000Z,279.34
2022-10-08T05:42:11.000Z,279.35
2022-10-08T05:43:38.000Z,279.37
2022-10-08T05:45:44.000Z,279.35
2022-10-08T05:47:10.000Z,279.35
2022-10-08T05:49:16.000Z,279.35
2022-10-08T05:52:07.000Z,279.34
2022-10-08T05:53:34.000Z,279.33
2022-10-08T05:55:40.000Z,279.35
2022-10-08T05:57:06.000Z,279.34
2022-10-08T05:59:13.000Z,279.34
2022-10-08T06:00:39.000Z,279.33
2022-10-08T06:02:45.000Z,279.31
2022-10-08T06:04:12.000Z,279.3
2022-10-08T06:06:18.000Z,279.28
2022-10-08T06:07:45.000Z,279.28
2022-10-08T06:09:51.000Z,279.28
2022-10-08T06:11:17.000Z,279.27
2022-10-08T06:13:23.000Z,279.27
2022-10-08T06:14:50.000Z,279.3
2022-10-08T06:16:56.000Z,279.31
2022-10-08T06:18:23.000Z,279.34
2022-10-08T06:20:29.000Z,279.34
2022-10-08T06:21:58.000Z,279.35
2022-10-08T06:24:04.000Z,279.37
2022-10-08T06:25:31.000Z,279.38
2022-10-08T06:27:37.000Z,279.4
2022-10-08T06:30:28.000Z,279.44
2022-10-08T06:31:54.000Z,279.44
2022-10-08T06:34:00.000Z,279.45
2022-10-08T06:35:27.000Z,279.51
2022-10-08T06:37:33.000Z,279.56
2022-10-08T06:39:00.000Z,279.58
2022-10-08T06:41:06.000Z,279.59
2022-10-08T06:42:32.000Z,279.63
2022-10-08T06:44:38.000Z,279.7
2022-10-08T06:46:05.000Z,279.77
2022-10-08T06:48:11.000Z,279.89
2022-10-08T06:49:37.000Z,279.98
2022-10-08T06:51:44.000Z,279.99
2022-10-08T06:53:10.000Z,280.02
2022-10-08T06:55:16.000Z,280
2022-10-08T06:56:43.000Z,279.99
2022-10-08T06:58:49.000Z,280
2022-10-08T07:00:15.000Z,280.02
2022-10-08T07:02:21.000Z,280.07
2022-10-08T07:03:48.000Z,280.14
2022-10-08T07:05:54.000Z,280.21
2022-10-08T07:08:46.000Z,280.27
2022-10-08T07:10:12.000Z,280.3
2022-10-08T07:12:23.000Z,280.3
2022-10-08T07:13:50.000Z,280.32
2022-10-08T07:15:56.000Z,280.37
2022-10-08T07:17:22.000Z,280.47
2022-10-08T07:19:28.000Z,280.51
2022-10-08T07:20:55.000Z,280.64
2022-10-08T07:23:01.000Z,280.71
2022-10-08T07:24:27.000Z,280.8
2022-10-08T07:26:34.000Z,280.93
2022-10-08T07:28:00.000Z,281.1
2022-10-08T07:30:07.000Z,281.28
2022-10-08T07:31:33.000Z,281.54
2022-10-08T07:33:40.000Z,281.77
2022-10-08T07:35:06.000Z,281.99
2022-10-08T07:37:12.000Z,282.21
2022-10-08T07:38:39.000Z,282.38
2022-10-08T07:40:45.000Z,282.45
2022-10-08T07:42:11.000Z,282.63
2022-10-08T07:44:17.000Z,282.73
2022-10-08T07:47:09.000Z,282.98
2022-10-08T07:48:35.000Z,283.11
2022-10-08T07:50:41.000Z,283.29
2022-10-08T07:52:08.000Z,283.45
2022-10-08T07:54:14.000Z,283.59
2022-10-08T07:55:40.000Z,283.7
2022-10-08T07:57:46.000Z,283.79
2022-10-08T07:59:13.000Z,283.91
2022-10-08T08:01:19.000Z,284.01
2022-10-08T08:02:46.000Z,284.23
2022-10-08T08:04:52.000Z,284.42
2022-10-08T08:06:19.000Z,284.51
2022-10-08T08:08:25.000Z,284.55
2022-10-08T08:09:51.000Z,284.61
2022-10-08T08:11:57.000Z,284.64
2022-10-08T08:13:24.000Z,284.71
2022-10-08T08:15:30.000Z,284.78
2022-10-08T08:16:56.000Z,284.89
2022-10-08T08:19:03.000Z,284.96
2022-10-08T08:20:29.000Z,285.05
2022-10-08T08:22:35.000Z,285.11
2022-10-08T08:25:27.000Z,285.21
2022-10-08T08:26:53.000Z,285.25
2022-10-08T08:29:03.000Z,285.29
2022-10-08T08:30:30.000Z,285.39
2022-10-08T08:32:36.000Z,285.47
2022-10-08T08:34:02.000Z,285.59
2022-10-08T08:36:08.000Z,285.65
2022-10-08T08:37:35.000Z,285.72
2022-10-08T08:39:41.000Z,285.81
2022-10-08T08:41:08.000Z,285.88
2022-10-08T08:43:19.000Z,285.88
2022-10-08T08:44:45.000Z,285.89
2022-10-08T08:46:52.000Z,285.89
2022-10-08T08:48:18.000Z,285.89
2022-10-08T08:50:24.000Z,285.95
2022-10-08T08:51:51.000Z,286.02
2022-10-08T08:53:57.000Z,286.08
2022-10-08T08:55:23.000Z,286.22
2022-10-08T08:57:29.000Z,286.36
2022-10-08T08:58:56.000Z,286.5
2022-10-08T09:01:02.000Z,286.63
2022-10-08T09:03:53.000Z,286.75
2022-10-08T09:05:20.000Z,286.69
2022-10-08T09:07:26.000Z,286.65
2022-10-08T09:08:52.000Z,286.58
2022-10-08T09:10:59.000Z,286.54
2022-10-08T09:12:25.000Z,286.52
2022-10-08T09:14:31.000Z,286.51
2022-10-08T09:15:58.000Z,286.5
2022-10-08T09:18:04.000Z,286.44
2022-10-08T09:19:30.000Z,286.45
2022-10-08T09:21:36.000Z,286.45
2022-10-08T09:23:03.000Z,286.51
2022-10-08T09:25:09.000Z,286.55
2022-10-08T09:26:35.000Z,286.58
2022-10-08T09:28:42.000Z,286.52
2022-10-08T09:30:08.000Z,286.51
2022-10-08T09:32:14.000Z,286.43
2022-10-08T09:33:41.000Z,286.33
2022-10-08T09:35:47.000Z,286.3
2022-10-08T09:37:13.000Z,286.34
2022-10-08T09:39:19.000Z,286.36
2022-10-08T09:42:11.000Z,286.27
2022-10-08T09:43:37.000Z,286.25
2022-10-08T09:45:43.000Z,286.2
2022-10-08T09:47:10.000Z,286.15
2022-10-08T09:49:16.000Z,286.13
2022-10-08T09:50:42.000Z,286.15
2022-10-08T09:52:49.000Z,286.18
2022-10-08T09:54:16.000Z,286.22
2022-10-08T09:56:22.000Z,286.25
2022-10-08T09:57:48.000Z,286.23
2022-10-08T09:59:54.000Z,286.18
2022-10-08T10:01:21.000Z,286.19
2022-10-08T10:03:27.000Z,286.18
2022-10-08T10:04:54.000Z,286.15
2022-10-08T10:07:00.000Z,286.16
2022-10-08T10:08:26.000Z,286.16
2022-10-08T10:10:33.000Z,286.2
2022-10-08T10:11:59.000Z,286.22
2022-10-08T10:14:05.000Z,286.11
2022-10-08T10:15:32.000Z,286.02
2022-10-08T10:17:38.000Z,285.93
2022-10-08T10:20:29.000Z,285.78
2022-10-08T10:21:56.000Z,285.74
2022-10-08T10:24:02.000Z,285.72
2022-10-08T10:25:28.000Z,285.7
2022-10-08T10:27:34.000Z,285.74
2022-10-08T10:29:01.000Z,285.78
2022-10-08T10:31:07.000Z,285.75
2022-10-08T10:32:34.000Z,285.82
2022-10-08T10:34:40.000Z,285.81
2022-10-08T10:36:06.000Z,285.81
2022-10-08T10:38:12.000Z,285.85
2022-10-08T10:39:39.000Z,285.93
2022-10-08T10:41:45.000Z,286.04
2022-10-08T10:43:11.000Z,286.04
2022-10-08T10:45:17.000Z,285.95
2022-10-08T10:46:44.000Z,285.92
2022-10-08T10:48:50.000Z,285.82
2022-10-08T10:50:16.000Z,285.72
2022-10-08T10:52:23.000Z,285.71
2022-10-08T10:53:49.000Z,285.71
2022-10-08T10:55:55.000Z,285.72
2022-10-08T10:58:47.000Z,285.79
2022-10-08T11:00:13.000Z,285.79
2022-10-08T11:02:19.000Z,285.79
2022-10-08T11:03:46.000Z,285.81
2022-10-08T11:05:52.000Z,285.82
2022-10-08T11:07:19.000Z,285.89
2022-10-08T11:09:25.000Z,285.99
2022-10-08T11:10:51.000Z,285.96
2022-10-08T11:12:57.000Z,285.93
2022-10-08T11:14:24.000Z,285.82
2022-10-08T11:16:30.000Z,285.77
2022-10-08T11:17:56.000Z,285.79
2022-10-08T11:20:03.000Z,285.79
2022-10-08T11:21:29.000Z,285.74
2022-10-08T11:23:35.000Z,285.79
2022-10-08T11:25:02.000Z,285.82
2022-10-08T11:27:08.000Z,285.92
2022-10-08T11:28:34.000Z,286.02
2022-10-08T11:30:41.000Z,286.04
2022-10-08T11:32:07.000Z,286.02
2022-10-08T11:34:13.000Z,285.99
2022-10-08T11:37:05.000Z,285.97
2022-10-08T11:38:31.000Z,285.99
2022-10-08T11:40:37.000Z,285.99
2022-10-08T11:42:04.000Z,285.97
2022-10-08T11:44:10.000Z,285.99
2022-10-08T11:45:36.000Z,285.96
2022-10-08T11:47:43.000Z,285.95
2022-10-08T11:49:09.000Z,285.97
2022-10-08T11:51:15.000Z,285.99
2022-10-08T11:52:42.000Z,285.99
2022-10-08T11:54:48.000Z,286.07
2022-10-08T11:56:21.000Z,286.07
2022-10-08T11:58:27.000Z,286.08
2022-10-08T11:59:54.000Z,286.25
2022-10-08T12:02:00.000Z,286.44
2022-10-08T12:03:27.000Z,286.58
2022-10-08T12:05:33.000Z,286.68
2022-10-08T12:07:00.000Z,286.8
2022-10-08T12:09:06.000Z,286.93
2022-10-08T12:10:33.000Z,286.98
2022-10-08T12:12:39.000Z,286.97
2022-10-08T12:15:30.000Z,286.84
2022-10-08T12:16:56.000Z,286.76
2022-10-08T12:19:02.000Z,286.83
2022-10-08T12:20:29.000Z,286.73
2022-10-08T12:22:35.000Z,286.68
2022-10-08T12:24:01.000Z,286.72
2022-10-08T12:26:08.000Z,286.75
2022-10-08T12:27:34.000Z,286.82
2022-10-08T12:29:40.000Z,286.86
2022-10-08T12:31:07.000Z,286.86
2022-10-08T12:33:13.000Z,286.84
2022-10-08T12:34:39.000Z,286.88
2022-10-08T12:36:45.000Z,286.95
2022-10-08T12:38:12.000Z,287.02
2022-10-08T12:40:18.000Z,287.15
2022-10-08T12:41:44.000Z,287.26
2022-10-08T12:43:51.000Z,287.3
2022-10-08T12:45:17.000Z,287.34
2022-10-08T12:47:23.000Z,287.33
2022-10-08T12:48:50.000Z,287.38
2022-10-08T12:50:56.000Z,287.38
2022-10-08T12:53:47.000Z,287.3
2022-10-08T12:55:14.000Z,287.3
2022-10-08T12:57:20.000Z,287.33
2022-10-08T12:58:46.000Z,287.37
2022-10-08T13:00:52.000Z,287.42
2022-10-08T13:02:19.000Z,287.5
2022-10-08T13:04:25.000Z,287.54
2022-10-08T13:05:52.000Z,287.6
2022-10-08T13:07:58.000Z,287.61
2022-10-08T13:09:24.000Z,287.66
2022-10-08T13:11:30.000Z,287.66
2022-10-08T13:12:57.000Z,287.68
2022-10-08T13:15:03.000Z,287.67
2022-10-08T13:16:30.000Z,287.73
2022-10-08T13:18:36.000Z,287.68
2022-10-08T13:20:02.000Z,287.71
2022-10-08T13:22:08.000Z,287.77
2022-10-08T13:23:35.000Z,287.81
2022-10-08T13:25:41.000Z,287.81
2022-10-08T13:27:07.000Z,287.81
2022-10-08T13:29:13.000Z,287.85
2022-10-08T13:32:04.000Z,287.91
2022-10-08T13:33:31.000Z,287.95
2022-10-08T13:35:37.000Z,287.95
2022-10-08T13:37:03.000Z,287.98
2022-10-08T13:39:09.000Z,287.99
2022-10-08T13:40:36.000Z,288
2022-10-08T13:42:42.000Z,288.03
2022-10-08T13:44:08.000Z,288.1
2022-10-08T13:46:15.000Z,288.16
2022-10-08T13:47:41.000Z,288.21
2022-10-08T13:49:47.000Z,288.32
2022-10-08T13:51:14.000Z,288.27
2022-10-08T13:53:20.000Z,288.14
2022-10-08T13:54:46.000Z,287.93
2022-10-08T13:56:53.000Z,287.74
2022-10-08T13:58:19.000Z,287.61
2022-10-08T14:00:25.000Z,287.53
2022-10-08T14:01:52.000Z,287.45
2022-10-08T14:03:58.000Z,287.38
2022-10-08T14:05:24.000Z,287.5
2022-10-08T14:07:31.000Z,287.68
2022-10-08T14:10:22.000Z,287.92
2022-10-08T14:11:48.000Z,288.03
2022-10-08T14:13:54.000Z,288.03
2022-10-08T14:15:21.000Z,288.12
2022-10-08T14:17:27.000Z,288.14
2022-10-08T14:18:53.000Z,288.16
2022-10-08T14:21:05.000Z,288.18
2022-10-08T14:22:31.000Z,288.17
2022-10-08T14:24:37.000Z,288.13
2022-10-08T14:26:04.000Z,288.18
2022-10-08T14:28:10.000Z,288.1
2022-10-08T14:29:37.000Z,288.06
2022-10-08T14:31:43.000Z,288.06
2022-10-08T14:33:09.000Z,288.03
2022-10-08T14:35:17.000Z,287.98
2022-10-08T14:36:44.000Z,287.92
2022-10-08T14:38:50.000Z,287.95
2022-10-08T14:40:16.000Z,287.98
2022-10-08T14:42:23.000Z,288.03
2022-10-08T14:43:49.000Z,288.02
2022-10-08T14:45:55.000Z,288
2022-10-08T14:48:46.000Z,288.02
2022-10-08T14:50:13.000Z,287.96
2022-10-08T14:52:19.000Z,287.92
2022-10-08T14:53:46.000Z,287.92
2022-10-08T14:55:52.000Z,287.93
2022-10-08T14:57:38.000Z,287.93
2022-10-08T14:59:44.000Z,287.91
2022-10-08T15:01:11.000Z,287.75
2022-10-08T15:03:17.000Z,287.71
2022-10-08T15:04:43.000Z,287.75
2022-10-08T15:06:49.000Z,287.75
2022-10-08T15:08:16.000Z,287.74
2022-10-08T15:10:22.000Z,287.71
2022-10-08T15:11:49.000Z,287.67
2022-10-08T15:13:55.000Z,287.67
2022-10-08T15:15:21.000Z,287.63
2022-10-08T15:17:27.000Z,287.6
2022-10-08T15:18:54.000Z,287.57
2022-10-08T15:21:00.000Z,287.52
2022-10-08T15:22:26.000Z,287.5
2022-10-08T15:24:32.000Z,287.49
2022-10-08T15:27:24.000Z,287.4
2022-10-08T15:28:50.000Z,287.3
2022-10-08T15:30:56.000Z,287.2
2022-10-08T15:32:23.000Z,287.07
2022-10-08T15:34:34.000Z,287.01
2022-10-08T15:36:00.000Z,286.93
2022-10-08T15:38:06.000Z,286.86
2022-10-08T15:39:33.000Z,286.77
2022-10-08T15:41:42.000Z,286.73
2022-10-08T15:43:08.000Z,286.66
2022-10-08T15:45:14.000Z,286.61
2022-10-08T15:46:41.000Z,286.54
2022-10-08T15:48:47.000Z,286.48
2022-10-08T15:50:13.000Z,286.43
2022-10-08T15:52:20.000Z,286.4
2022-10-08T15:53:46.000Z,286.36
2022-10-08T15:55:52.000Z,286.3
2022-10-08T15:57:19.000Z,286.25
2022-10-08T15:59:25.000Z,286.22
2022-10-08T16:00:51.000Z,286.15
2022-10-08T16:02:58.000Z,286.11
2022-10-08T16:05:49.000Z,286
2022-10-08T16:07:15.000Z,285.95
2022-10-08T16:09:21.000Z,285.91
2022-10-08T16:10:48.000Z,285.84
2022-10-08T16:12:54.000Z,285.74
2022-10-08T16:14:20.000Z,285.68
2022-10-08T16:16:27.000Z,285.6
2022-10-08T16:17:53.000Z,285.54
2022-10-08T16:19:59.000Z,285.5
2022-10-08T16:21:26.000Z,285.45
2022-10-08T16:23:32.000Z,285.38
2022-10-08T16:24:58.000Z,285.33
2022-10-08T16:27:04.000Z,285.22
2022-10-08T16:28:31.000Z,285.17
2022-10-08T16:30:37.000Z,285.07
2022-10-08T16:32:04.000Z,285
2022-10-08T16:34:10.000Z,284.99
2022-10-08T16:35:36.000Z,284.89
2022-10-08T16:37:42.000Z,284.82
2022-10-08T16:39:09.000Z,284.74
2022-10-08T16:41:15.000Z,284.7
2022-10-08T16:44:06.000Z,284.68
2022-10-08T16:45:38.000Z,284.63
2022-10-08T16:47:45.000Z,284.55
2022-10-08T16:49:11.000Z,284.51
2022-10-08T16:51:17.000Z,284.42
2022-10-08T16:52:44.000Z,284.38
2022-10-08T16:54:50.000Z,284.34
2022-10-08T16:56:21.000Z,284.24
2022-10-08T16:58:27.000Z,284.16
2022-10-08T16:59:53.000Z,284.08
2022-10-08T17:01:59.000Z,284
2022-10-08T17:03:26.000Z,283.89
2022-10-08T17:05:32.000Z,283.86
2022-10-08T17:06:59.000Z,283.83
2022-10-08T17:09:05.000Z,283.76
2022-10-08T17:10:32.000Z,283.73
2022-10-08T17:12:38.000Z,283.66
2022-10-08T17:14:04.000Z,283.59
2022-10-08T17:16:10.000Z,283.55
2022-10-08T17:17:37.000Z,283.5
2022-10-08T17:19:43.000Z,283.44
2022-10-08T17:22:34.000Z,283.3
2022-10-08T17:24:00.000Z,283.23
2022-10-08T17:26:06.000Z,283.14
2022-10-08T17:27:33.000Z,283.05
2022-10-08T17:29:39.000Z,282.99
2022-10-08T17:31:06.000Z,282.89
2022-10-08T17:33:12.000Z,282.85
2022-10-08T17:34:38.000Z,282.81
2022-10-08T17:36:44.000Z,282.77
2022-10-08T17:38:11.000Z,282.74
2022-10-08T17:40:17.000Z,282.74
2022-10-08T17:41:43.000Z,282.71
2022-10-08T17:43:50.000Z,282.68
2022-10-08T17:45:16.000Z,282.63
2022-10-08T17:47:22.000Z,282.59
2022-10-08T17:48:55.000Z,282.54
2022-10-08T17:51:01.000Z,282.52
2022-10-08T17:52:28.000Z,282.47
2022-10-08T17:54:34.000Z,282.45
2022-10-08T17:56:00.000Z,282.36
2022-10-08T17:58:06.000Z,282.28
2022-10-08T18:00:58.000Z,282.23
2022-10-08T18:02:24.000Z,282.12
2022-10-08T18:04:30.000Z,282.02
2022-10-08T18:05:57.000Z,281.96
2022-10-08T18:08:03.000Z,281.87
2022-10-08T18:09:29.000Z,281.75
2022-10-08T18:11:35.000Z,281.63
2022-10-08T18:13:02.000Z,281.55
2022-10-08T18:15:08.000Z,281.52
2022-10-08T18:16:34.000Z,281.48
2022-10-08T18:18:40.000Z,281.45
2022-10-08T18:20:07.000Z,281.39
2022-10-08T18:22:13.000Z,281.35
2022-10-08T18:23:40.000Z,281.28
2022-10-08T18:25:46.000Z,281.28
2022-10-08T18:27:17.000Z,281.21
2022-10-08T18:29:24.000Z,281.18
2022-10-08T18:30:50.000Z,281.1
2022-10-08T18:32:56.000Z,281.03
2022-10-08T18:34:23.000Z,280.96
2022-10-08T18:36:29.000Z,280.91
2022-10-08T18:39:20.000Z,280.84
2022-10-08T18:40:54.000Z,280.8
2022-10-08T18:44:33.000Z,280.76
2022-10-08T18:45:28.000Z,280.68
2022-10-08T18:46:55.000Z,280.57
2022-10-08T18:49:01.000Z,280.51
2022-10-08T18:50:27.000Z,280.42
2022-10-08T18:52:33.000Z,280.38
2022-10-08T18:54:00.000Z,280.35
2022-10-08T18:56:06.000Z,280.32
2022-10-08T18:57:32.000Z,280.3
2022-10-08T18:59:39.000Z,280.27
2022-10-08T19:01:05.000Z,280.24
2022-10-08T19:03:11.000Z,280.18
2022-10-08T19:04:38.000Z,280.13
2022-10-08T19:06:44.000Z,280.1
2022-10-08T19:08:10.000Z,280.03
2022-10-08T19:10:17.000Z,279.98
2022-10-08T19:11:43.000Z,279.95
2022-10-08T19:13:51.000Z,279.91
2022-10-08T19:15:17.000Z,279.85
2022-10-08T19:17:24.000Z,279.8
2022-10-08T19:20:09.000Z,279.76
2022-10-08T19:21:35.000Z,279.73
2022-10-08T19:23:41.000Z,279.74
2022-10-08T19:25:08.000Z,279.69
2022-10-08T19:27:14.000Z,279.67
2022-10-08T19:28:41.000Z,279.65
2022-10-08T19:30:47.000Z,279.63
2022-10-08T19:32:14.000Z,279.58
2022-10-08T19:34:20.000Z,279.55
2022-10-08T19:35:46.000Z,279.52
2022-10-08T19:37:52.000Z,279.48
2022-10-08T19:39:19.000Z,279.47
2022-10-08T19:41:25.000Z,279.44
2022-10-08T19:42:51.000Z,279.38
2022-10-08T19:44:57.000Z,279.35
2022-10-08T19:46:24.000Z,279.31
2022-10-08T19:48:30.000Z,279.3
2022-10-08T19:49:57.000Z,279.28
2022-10-08T19:52:03.000Z,279.24
2022-10-08T19:53:30.000Z,279.23
2022-10-08T19:55:36.000Z,279.23
2022-10-08T19:58:27.000Z,279.22
2022-10-08T19:59:54.000Z,279.17
2022-10-08T20:02:00.000Z,279.16
2022-10-08T20:03:26.000Z,279.13
2022-10-08T20:05:32.000Z,279.1
2022-10-08T20:06:59.000Z,279.08
2022-10-08T20:09:05.000Z,279.08
2022-10-08T20:10:32.000Z,279.05
2022-10-08T20:12:38.000Z,279.03
2022-10-08T20:14:04.000Z,279.02
2022-10-08T20:16:10.000Z,279.01
2022-10-08T20:17:37.000Z,278.99
2022-10-08T20:19:43.000Z,279.01
2022-10-08T20:21:10.000Z,278.99
2022-10-08T20:23:16.000Z,279.01
2022-10-08T20:24:42.000Z,279.01
2022-10-08T20:26:48.000Z,278.97
2022-10-08T20:28:15.000Z,278.94
2022-10-08T20:30:22.000Z,278.9
2022-10-08T20:31:48.000Z,278.88
2022-10-08T20:33:54.000Z,278.86
2022-10-08T20:36:46.000Z,278.78
2022-10-08T20:38:12.000Z,278.72
2022-10-08T20:40:18.000Z,278.67
2022-10-08T20:41:45.000Z,278.64
2022-10-08T20:43:51.000Z,278.61
2022-10-08T20:45:17.000Z,278.58
2022-10-08T20:47:23.000Z,278.57
2022-10-08T20:48:50.000Z,278.53
2022-10-08T20:50:56.000Z,278.51
2022-10-08T20:52:22.000Z,278.49
2022-10-08T20:54:28.000Z,278.47
2022-10-08T20:55:55.000Z,278.47
2022-10-08T20:58:01.000Z,278.43
2022-10-08T20:59:28.000Z,278.39
2022-10-08T21:01:34.000Z,278.36
2022-10-08T21:03:00.000Z,278.3
2022-10-08T21:05:06.000Z,278.29
2022-10-08T21:06:33.000Z,278.26
2022-10-08T21:08:39.000Z,278.25
2022-10-08T21:10:05.000Z,278.17
2022-10-08T21:12:11.000Z,278.17
2022-10-08T21:15:03.000Z,278.06
2022-10-08T21:16:29.000Z,278.02
2022-10-08T21:18:36.000Z,278.02
2022-10-08T21:20:02.000Z,277.97
2022-10-08T21:22:08.000Z,277.95
2022-10-08T21:23:35.000Z,277.93
2022-10-08T21:25:41.000Z,277.93
2022-10-08T21:27:07.000Z,277.91
2022-10-08T21:29:13.000Z,277.88
2022-10-08T21:30:40.000Z,277.81
2022-10-08T21:32:46.000Z,277.79
2022-10-08T21:34:13.000Z,277.78
2022-10-08T21:36:19.000Z,277.77
2022-10-08T21:37:46.000Z,277.77
2022-10-08T21:39:52.000Z,277.74
2022-10-08T21:41:18.000Z,277.74
2022-10-08T21:43:24.000Z,277.71
2022-10-08T21:44:51.000Z,277.68
2022-10-08T21:46:57.000Z,277.7
2022-10-08T21:48:24.000Z,277.64
2022-10-08T21:50:30.000Z,277.63
2022-10-08T21:53:26.000Z,277.59
2022-10-08T21:54:53.000Z,277.55
2022-10-08T21:56:59.000Z,277.53
2022-10-08T21:58:26.000Z,277.52
2022-10-08T22:00:32.000Z,277.51
2022-10-08T22:01:58.000Z,277.52
2022-10-08T22:04:04.000Z,277.51
2022-10-08T22:05:31.000Z,277.49
2022-10-08T22:07:37.000Z,277.48
2022-10-08T22:09:04.000Z,277.46
2022-10-08T22:11:10.000Z,277.43
2022-10-08T22:12:36.000Z,277.4
2022-10-08T22:14:43.000Z,277.38
2022-10-08T22:16:09.000Z,277.37
2022-10-08T22:18:15.000Z,277.38
2022-10-08T22:19:42.000Z,277.38
2022-10-08T22:21:48.000Z,277.38
2022-10-08T22:23:14.000Z,277.38
2022-10-08T22:25:20.000Z,277.38
2022-10-08T22:26:47.000Z,277.36
2022-10-08T22:28:53.000Z,277.37
2022-10-08T22:31:44.000Z,277.33
2022-10-08T22:33:11.000Z,277.31
2022-10-08T22:35:17.000Z,277.29
2022-10-08T22:36:43.000Z,277.25
2022-10-08T22:38:49.000Z,277.22
2022-10-08T22:40:16.000Z,277.18
2022-10-08T22:42:22.000Z,277.13
2022-10-08T22:43:49.000Z,277.12
2022-10-08T22:45:55.000Z,277.09
2022-10-08T22:47:21.000Z,277.08
2022-10-08T22:49:27.000Z,277.06
2022-10-08T22:50:54.000Z,277.04
2022-10-08T22:53:00.000Z,276.99